createdAt,value
2023-02-13T00:00:35.748Z,70.11
2023-02-13T00:01:39.554Z,70.25
2023-02-13T00:02:41.646Z,70.54
2023-02-13T00:03:45.955Z,70.71
2023-02-13T00:04:48.273Z,70.29
2023-02-13T00:05:50.444Z,70.30
2023-02-13T00:06:52.645Z,70.12
2023-02-13T00:07:55.632Z,70.19
2023-02-13T00:08:57.671Z,70.28
2023-02-13T00:10:00.166Z,69.92
2023-02-13T00:11:02.356Z,69.90
2023-02-13T00:12:05.773Z,69.93
2023-02-13T00:13:08.792Z,70.25
2023-02-13T00:14:11.180Z,70.51
2023-02-13T00:15:13.465Z,70.12
2023-02-13T00:16:17.155Z,70.16
2023-02-13T00:17:20.888Z,70.11
2023-02-13T00:18:22.922Z,70.21
2023-02-13T00:19:25.248Z,70.28
2023-02-13T00:20:27.562Z,70.60
2023-02-13T00:21:29.671Z,70.22
2023-02-13T00:22:37.403Z,70.38
2023-02-13T00:23:40.054Z,70.20
2023-02-13T00:24:42.978Z,70.31
2023-02-13T00:25:45.162Z,70.50
2023-02-13T00:26:47.339Z,70.49
2023-02-13T00:27:53.396Z,70.73
2023-02-13T00:28:56.948Z,70.41
2023-02-13T00:30:00.034Z,70.15
2023-02-13T00:32:15.330Z,70.55
2023-02-13T00:33:17.554Z,70.43
2023-02-13T00:34:20.877Z,70.29
2023-02-13T00:35:22.863Z,70.21
2023-02-13T00:36:25.558Z,70.12
2023-02-13T00:37:28.761Z,70.24
2023-02-13T00:38:31.298Z,70.39
2023-02-13T00:39:33.556Z,70.39
2023-02-13T00:40:36.393Z,70.39
2023-02-13T00:41:39.309Z,70.33
2023-02-13T00:42:41.848Z,70.74
2023-02-13T00:43:45.656Z,70.50
2023-02-13T00:44:48.861Z,70.68
2023-02-13T00:45:51.136Z,70.82
2023-02-13T00:46:54.190Z,70.92
2023-02-13T00:47:56.196Z,71.13
2023-02-13T00:48:58.323Z,71.20
2023-02-13T00:50:01.793Z,71.62
2023-02-13T00:51:06.414Z,71.57
2023-02-13T00:52:08.616Z,70.99
2023-02-13T00:53:11.017Z,70.96
2023-02-13T00:54:13.969Z,71.20
2023-02-13T00:55:16.420Z,70.65
2023-02-13T00:56:19.531Z,70.44
2023-02-13T00:57:21.779Z,70.26
2023-02-13T00:58:24.219Z,70.55
2023-02-13T00:59:27.533Z,70.58
2023-02-13T01:00:30.214Z,70.91
2023-02-13T01:01:32.676Z,70.54
2023-02-13T01:02:36.677Z,70.69
2023-02-13T01:03:39.240Z,70.54
2023-02-13T01:04:41.817Z,70.55
2023-02-13T01:05:46.022Z,71.07
2023-02-13T01:06:48.366Z,71.09
2023-02-13T01:07:51.306Z,70.89
2023-02-13T01:08:53.385Z,71.01
2023-02-13T01:09:55.460Z,71.27
2023-02-13T01:10:58.202Z,71.19
2023-02-13T01:12:01.001Z,71.55
2023-02-13T01:13:03.401Z,71.08
2023-02-13T01:14:06.631Z,70.91
2023-02-13T01:15:09.760Z,71.07
2023-02-13T01:16:14.580Z,70.80
2023-02-13T01:17:16.730Z,70.68
2023-02-13T01:18:20.852Z,71.09
2023-02-13T01:19:23.779Z,70.76
2023-02-13T01:20:28.811Z,70.83
2023-02-13T01:21:30.885Z,71.66
2023-02-13T01:22:33.122Z,71.23
2023-02-13T01:23:38.543Z,71.10
2023-02-13T01:24:40.829Z,70.90
2023-02-13T01:25:43.095Z,70.98
2023-02-13T01:26:45.793Z,70.97
2023-02-13T01:27:48.140Z,71.20
2023-02-13T01:28:54.047Z,71.16
2023-02-13T01:29:56.317Z,71.40
2023-02-13T01:30:59.664Z,71.40
2023-02-13T01:32:04.283Z,71.37
2023-02-13T01:33:06.613Z,71.46
2023-02-13T01:34:08.949Z,71.50
2023-02-13T01:35:12.788Z,71.91
2023-02-13T01:36:15.607Z,71.97
2023-02-13T01:37:19.093Z,71.45
2023-02-13T01:38:21.531Z,71.78
2023-02-13T01:39:23.659Z,71.51
2023-02-13T01:40:27.896Z,71.89
2023-02-13T01:41:30.588Z,71.96
2023-02-13T01:42:34.926Z,71.47
2023-02-13T01:43:58.814Z,72.34
2023-02-13T01:45:04.490Z,72.21
2023-02-13T01:46:07.011Z,72.01
2023-02-13T01:47:13.814Z,72.08
2023-02-13T01:48:19.409Z,72.18
2023-02-13T01:49:25.137Z,72.06
2023-02-13T01:50:37.185Z,71.75
2023-02-13T01:51:41.188Z,71.86
2023-02-13T01:52:47.002Z,71.74
2023-02-13T01:53:56.048Z,71.78
2023-02-13T01:55:01.387Z,71.93
2023-02-13T01:56:13.386Z,72.04
2023-02-13T01:57:23.122Z,72.15
2023-02-13T01:58:29.452Z,72.12
2023-02-13T01:59:38.166Z,72.12
2023-02-13T02:00:42.652Z,72.20
2023-02-13T02:01:46.146Z,72.03
2023-02-13T02:02:52.584Z,72.22
2023-02-13T02:04:00.305Z,72.45
2023-02-13T02:05:07.206Z,72.05
2023-02-13T02:06:13.905Z,72.18
2023-02-13T02:07:23.434Z,72.13
2023-02-13T02:08:27.045Z,72.34
2023-02-13T02:09:33.003Z,72.45
2023-02-13T02:10:35.953Z,72.17
2023-02-13T02:11:43.282Z,72.44
2023-02-13T02:13:14.954Z,72.40
2023-02-13T02:14:17.930Z,72.66
2023-02-13T02:15:20.800Z,72.17
2023-02-13T02:16:26.034Z,71.89
2023-02-13T02:17:28.369Z,72.33
2023-02-13T02:18:31.133Z,72.65
2023-02-13T02:19:39.707Z,72.34
2023-02-13T02:21:10.926Z,73.00
2023-02-13T02:22:19.968Z,72.90
2023-02-13T02:23:45.607Z,72.49
2023-02-13T02:25:08.542Z,72.29
2023-02-13T02:26:22.578Z,72.85
2023-02-13T02:27:28.497Z,72.55
2023-02-13T02:28:39.096Z,73.01
2023-02-13T02:29:58.057Z,73.17
2023-02-13T02:31:11.835Z,72.80
2023-02-13T02:32:26.849Z,73.12
2023-02-13T02:33:49.231Z,73.12
2023-02-13T02:34:58.272Z,72.95
2023-02-13T02:36:18.898Z,73.05
2023-02-13T02:37:36.414Z,73.40
2023-02-13T02:38:51.206Z,73.14
2023-02-13T02:40:25.888Z,73.00
2023-02-13T02:41:42.387Z,73.50
2023-02-13T02:43:09.965Z,73.12
2023-02-13T02:44:34.110Z,72.90
2023-02-13T02:46:03.616Z,73.07
2023-02-13T02:47:33.560Z,73.44
2023-02-13T02:48:58.119Z,73.31
2023-02-13T02:50:29.458Z,73.81
2023-02-13T02:51:45.471Z,73.95
2023-02-13T02:53:24.844Z,73.36
2023-02-13T02:55:04.728Z,73.94
2023-02-13T02:56:30.677Z,74.07
2023-02-13T02:57:58.097Z,74.30
2023-02-13T02:59:22.099Z,74.05
2023-02-13T03:00:46.204Z,74.35
2023-02-13T03:02:11.478Z,74.54
2023-02-13T03:03:35.808Z,74.95
2023-02-13T03:05:03.453Z,75.02
2023-02-13T03:06:13.651Z,74.72
2023-02-13T03:07:19.104Z,74.64
2023-02-13T03:08:23.751Z,74.61
2023-02-13T03:09:51.265Z,75.01
2023-02-13T03:11:12.399Z,74.56
2023-02-13T03:12:39.142Z,74.86
2023-02-13T03:13:45.092Z,74.42
2023-02-13T03:14:47.457Z,74.40
2023-02-13T03:16:11.186Z,74.68
2023-02-13T03:17:35.339Z,74.86
2023-02-13T03:18:59.414Z,74.38
2023-02-13T03:20:23.508Z,74.02
2023-02-13T03:22:04.887Z,74.02
2023-02-13T03:23:16.944Z,73.61
2023-02-13T03:24:48.376Z,73.36
2023-02-13T03:26:12.620Z,73.46
2023-02-13T03:27:23.210Z,72.93
2023-02-13T03:28:56.906Z,73.13
2023-02-13T03:30:10.717Z,72.87
2023-02-13T03:31:25.607Z,73.35
2023-02-13T03:32:43.389Z,73.39
2023-02-13T03:34:01.787Z,73.13
2023-02-13T03:35:44.172Z,73.69
2023-02-13T03:37:11.659Z,73.68
2023-02-13T03:38:23.640Z,73.61
2023-02-13T03:39:52.493Z,73.75
2023-02-13T03:41:17.139Z,73.83
2023-02-13T03:42:41.446Z,74.27
2023-02-13T03:43:53.136Z,74.02
2023-02-13T03:45:17.551Z,74.18
2023-02-13T03:46:22.718Z,74.18
2023-02-13T03:47:25.029Z,74.25
2023-02-13T03:48:49.251Z,74.23
2023-02-13T03:50:05.027Z,74.29
2023-02-13T03:51:10.029Z,74.23
2023-02-13T03:52:31.026Z,74.33
2023-02-13T03:53:36.852Z,74.45
2023-02-13T03:55:14.870Z,74.61
2023-02-13T03:56:39.806Z,74.48
2023-02-13T03:58:03.524Z,74.78
2023-02-13T03:59:17.967Z,74.93
2023-02-13T04:00:21.841Z,75.16
2023-02-13T04:01:27.695Z,75.16
2023-02-13T04:02:33.689Z,75.46
2023-02-13T04:03:57.533Z,75.74
2023-02-13T04:05:18.416Z,75.95
2023-02-13T04:06:25.001Z,76.19
2023-02-13T04:07:31.883Z,76.34
2023-02-13T04:08:34.631Z,76.49
2023-02-13T04:09:40.327Z,76.66
2023-02-13T04:10:46.756Z,76.82
2023-02-13T04:12:09.826Z,76.95
2023-02-13T04:13:28.459Z,77.06
2023-02-13T04:14:40.431Z,77.18
2023-02-13T04:15:55.136Z,77.24
2023-02-13T04:17:01.158Z,77.38
2023-02-13T04:18:25.516Z,77.57
2023-02-13T04:19:28.173Z,77.69
2023-02-13T04:20:32.407Z,77.54
2023-02-13T04:21:36.473Z,77.49
2023-02-13T04:22:44.186Z,77.53
2023-02-13T04:23:46.125Z,77.55
2023-02-13T04:24:48.558Z,77.65
2023-02-13T04:25:53.762Z,77.64
2023-02-13T04:26:57.470Z,77.59
2023-02-13T04:27:59.647Z,77.54
2023-02-13T04:29:01.850Z,77.46
2023-02-13T04:30:05.688Z,77.58
2023-02-13T04:31:07.983Z,77.53
2023-02-13T04:32:11.443Z,77.27
2023-02-13T04:33:13.583Z,77.30
2023-02-13T04:34:16.319Z,77.11
2023-02-13T04:35:18.542Z,76.90
2023-02-13T04:36:21.672Z,76.90
2023-02-13T04:37:26.024Z,76.96
2023-02-13T04:38:28.498Z,77.04
2023-02-13T04:39:30.590Z,77.13
2023-02-13T04:40:33.976Z,77.27
2023-02-13T04:41:36.466Z,77.35
2023-02-13T04:42:38.649Z,77.23
2023-02-13T04:43:40.975Z,77.26
2023-02-13T04:44:43.209Z,77.26
2023-02-13T04:45:50.396Z,77.39
2023-02-13T04:46:52.793Z,77.51
2023-02-13T04:47:56.879Z,77.48
2023-02-13T04:48:58.907Z,77.68
2023-02-13T04:50:01.030Z,77.50
2023-02-13T04:51:03.512Z,77.42
2023-02-13T04:52:06.887Z,77.50
2023-02-13T04:53:09.196Z,77.64
2023-02-13T04:54:11.473Z,77.46
2023-02-13T04:55:13.964Z,77.47
2023-02-13T04:56:18.523Z,77.25
2023-02-13T04:57:22.311Z,77.34
2023-02-13T04:58:24.851Z,77.49
2023-02-13T04:59:27.588Z,77.15
2023-02-13T05:00:32.262Z,77.18
2023-02-13T05:01:34.611Z,77.12
2023-02-13T05:02:38.714Z,76.83
2023-02-13T05:03:41.494Z,76.87
2023-02-13T05:04:43.641Z,76.51
2023-02-13T05:05:45.842Z,76.51
2023-02-13T05:06:48.051Z,76.74
2023-02-13T05:07:50.266Z,76.61
2023-02-13T05:08:52.594Z,76.75
2023-02-13T05:09:54.806Z,76.78
2023-02-13T05:10:57.292Z,76.95
2023-02-13T05:11:59.943Z,77.04
2023-02-13T05:13:02.435Z,76.81
2023-02-13T05:14:04.567Z,76.85
2023-02-13T05:15:07.628Z,76.82
2023-02-13T05:16:10.611Z,76.75
2023-02-13T05:17:12.851Z,76.71
2023-02-13T05:18:15.083Z,76.75
2023-02-13T05:19:17.125Z,76.79
2023-02-13T05:20:19.900Z,76.95
2023-02-13T05:21:40.661Z,76.88
2023-02-13T05:23:06.292Z,76.78
2023-02-13T05:24:08.682Z,76.61
2023-02-13T05:25:10.798Z,76.96
2023-02-13T05:26:13.574Z,77.15
2023-02-13T05:27:15.735Z,77.12
2023-02-13T05:28:36.345Z,77.15
2023-02-13T05:29:38.964Z,77.16
2023-02-13T05:30:41.234Z,77.06
2023-02-13T05:31:43.731Z,76.91
2023-02-13T05:32:46.818Z,76.77
2023-02-13T05:33:48.982Z,76.76
2023-02-13T05:34:51.096Z,76.56
2023-02-13T05:35:55.392Z,76.47
2023-02-13T05:36:58.094Z,76.63
2023-02-13T05:38:00.176Z,76.65
2023-02-13T05:39:02.298Z,76.90
2023-02-13T05:40:06.318Z,76.64
2023-02-13T05:41:08.374Z,76.49
2023-02-13T05:42:10.390Z,76.50
2023-02-13T05:43:12.640Z,76.39
2023-02-13T05:44:15.531Z,76.30
2023-02-13T05:45:17.825Z,76.41
2023-02-13T05:46:21.014Z,76.59
2023-02-13T05:47:23.246Z,76.50
2023-02-13T05:48:25.254Z,76.50
2023-02-13T05:49:27.420Z,76.49
2023-02-13T05:50:30.014Z,76.41
2023-02-13T05:51:32.514Z,76.53
2023-02-13T05:52:35.156Z,76.41
2023-02-13T05:53:37.954Z,76.27
2023-02-13T05:54:40.190Z,76.32
2023-02-13T05:55:42.637Z,76.38
2023-02-13T05:56:47.213Z,76.54
2023-02-13T05:57:49.721Z,76.87
2023-02-13T05:58:53.640Z,76.20
2023-02-13T05:59:55.921Z,76.42
2023-02-13T06:00:59.994Z,76.69
2023-02-13T06:02:02.398Z,76.26
2023-02-13T06:03:04.664Z,76.31
2023-02-13T06:04:06.970Z,75.68
2023-02-13T06:05:09.030Z,76.07
2023-02-13T06:06:11.525Z,75.95
2023-02-13T06:07:13.665Z,75.14
2023-02-13T06:08:15.927Z,74.89
2023-02-13T06:09:18.042Z,74.96
2023-02-13T06:10:20.527Z,75.11
2023-02-13T06:11:22.613Z,74.85
2023-02-13T06:12:25.363Z,75.32
2023-02-13T06:13:28.777Z,75.42
2023-02-13T06:14:30.989Z,75.43
2023-02-13T06:15:32.986Z,75.78
2023-02-13T06:16:35.200Z,75.04
2023-02-13T06:17:37.509Z,75.68
2023-02-13T06:18:39.914Z,75.30
2023-02-13T06:19:42.622Z,75.55
2023-02-13T06:20:45.106Z,75.02
2023-02-13T06:21:47.206Z,74.67
2023-02-13T06:24:01.617Z,74.82
2023-02-13T06:25:04.370Z,74.79
2023-02-13T06:26:10.101Z,74.95
2023-02-13T06:27:13.177Z,74.88
2023-02-13T06:28:17.646Z,75.33
2023-02-13T06:29:19.819Z,75.01
2023-02-13T06:30:23.485Z,74.71
2023-02-13T06:31:26.752Z,74.95
2023-02-13T06:32:29.064Z,75.50
2023-02-13T06:33:32.665Z,75.56
2023-02-13T06:34:34.731Z,76.17
2023-02-13T06:35:36.976Z,75.75
2023-02-13T06:36:41.056Z,74.91
2023-02-13T06:37:43.443Z,75.08
2023-02-13T06:38:45.454Z,75.09
2023-02-13T06:39:47.878Z,75.12
2023-02-13T06:40:50.706Z,75.59
2023-02-13T06:41:52.612Z,75.59
2023-02-13T06:42:55.030Z,75.51
2023-02-13T06:43:57.183Z,75.37
2023-02-13T06:44:59.367Z,75.04
2023-02-13T06:46:06.030Z,74.83
2023-02-13T06:47:08.484Z,74.98
2023-02-13T06:48:10.686Z,74.81
2023-02-13T06:49:12.761Z,75.07
2023-02-13T06:50:17.012Z,75.41
2023-02-13T06:51:19.188Z,75.32
2023-02-13T06:52:21.594Z,75.29
2023-02-13T06:53:25.159Z,75.69
2023-02-13T06:54:44.618Z,75.62
2023-02-13T06:55:31.989Z,75.24
2023-02-13T06:56:34.420Z,75.65
2023-02-13T06:57:36.427Z,75.83
2023-02-13T06:58:39.581Z,75.73
2023-02-13T06:59:42.130Z,74.93
2023-02-13T07:00:45.226Z,75.16
2023-02-13T07:01:47.638Z,75.09
2023-02-13T07:02:49.790Z,74.99
2023-02-13T07:03:51.945Z,75.08
2023-02-13T07:04:54.237Z,74.53
2023-02-13T07:05:57.259Z,74.27
2023-02-13T07:06:59.517Z,74.42
2023-02-13T07:08:01.560Z,75.37
2023-02-13T07:09:04.218Z,74.98
2023-02-13T07:10:09.881Z,74.64
2023-02-13T07:11:19.845Z,74.46
2023-02-13T07:12:22.252Z,74.15
2023-02-13T07:13:24.421Z,74.13
2023-02-13T07:14:27.442Z,74.69
2023-02-13T07:15:30.624Z,74.15
2023-02-13T07:16:33.701Z,74.34
2023-02-13T07:17:36.278Z,74.31
2023-02-13T07:18:38.758Z,74.32
2023-02-13T07:19:40.945Z,74.85
2023-02-13T07:20:43.360Z,74.96
2023-02-13T07:21:45.594Z,75.19
2023-02-13T07:22:47.823Z,75.30
2023-02-13T07:23:50.768Z,75.02
2023-02-13T07:24:54.150Z,74.17
2023-02-13T07:25:59.518Z,74.31
2023-02-13T07:27:01.840Z,74.43
2023-02-13T07:28:06.848Z,73.69
2023-02-13T07:29:11.897Z,74.22
2023-02-13T07:30:13.877Z,74.43
2023-02-13T07:31:16.135Z,74.27
2023-02-13T07:32:18.405Z,74.52
2023-02-13T07:33:21.389Z,74.49
2023-02-13T07:34:24.729Z,74.37
2023-02-13T07:35:27.059Z,74.57
2023-02-13T07:36:29.547Z,74.39
2023-02-13T07:37:31.954Z,74.23
2023-02-13T07:38:34.174Z,73.94
2023-02-13T07:39:39.196Z,73.64
2023-02-13T07:40:42.486Z,73.67
2023-02-13T07:41:45.051Z,73.71
2023-02-13T07:42:48.342Z,73.36
2023-02-13T07:43:50.425Z,73.59
2023-02-13T07:44:52.809Z,74.27
2023-02-13T07:46:00.843Z,74.08
2023-02-13T07:47:04.269Z,74.12
2023-02-13T07:48:06.609Z,73.75
2023-02-13T07:49:08.751Z,73.62
2023-02-13T07:50:13.804Z,73.10
2023-02-13T07:51:16.568Z,73.13
2023-02-13T07:52:18.975Z,73.82
2023-02-13T07:53:22.209Z,73.82
2023-02-13T07:54:24.769Z,74.03
2023-02-13T07:55:28.752Z,73.59
2023-02-13T07:56:32.036Z,72.86
2023-02-13T07:57:34.386Z,72.56
2023-02-13T07:58:39.812Z,72.61
2023-02-13T07:59:43.106Z,72.00
2023-02-13T08:00:46.843Z,71.82
2023-02-13T08:01:50.929Z,72.00
2023-02-13T08:02:53.291Z,72.38
2023-02-13T08:03:55.426Z,72.00
2023-02-13T08:04:58.006Z,71.91
2023-02-13T08:06:00.548Z,72.02
2023-02-13T08:07:02.870Z,71.45
2023-02-13T08:08:05.590Z,71.14
2023-02-13T08:09:28.576Z,71.07
2023-02-13T08:10:49.610Z,71.57
2023-02-13T08:11:53.711Z,71.99
2023-02-13T08:12:56.112Z,71.23
2023-02-13T08:13:59.168Z,71.82
2023-02-13T08:15:01.441Z,71.67
2023-02-13T08:16:05.122Z,71.33
2023-02-13T08:17:09.362Z,71.28
2023-02-13T08:18:11.417Z,70.75
2023-02-13T08:19:14.130Z,71.62
2023-02-13T08:20:17.546Z,71.57
2023-02-13T08:21:20.275Z,70.72
2023-02-13T08:22:24.295Z,74.47
2023-02-13T08:23:26.535Z,76.94
2023-02-13T08:24:29.653Z,74.84
2023-02-13T08:25:32.608Z,76.44
2023-02-13T08:26:35.393Z,74.21
2023-02-13T08:27:38.106Z,80.34
2023-02-13T08:28:40.453Z,75.67
2023-02-13T08:29:42.958Z,76.02
2023-02-13T08:30:45.247Z,80.81
2023-02-13T08:31:48.305Z,73.59
2023-02-13T08:32:54.177Z,74.14
2023-02-13T08:33:56.949Z,78.82
2023-02-13T08:34:59.589Z,71.79
2023-02-13T08:36:06.108Z,77.46
2023-02-13T08:37:08.479Z,77.95
2023-02-13T08:38:11.369Z,71.39
2023-02-13T08:39:13.436Z,71.39
2023-02-13T08:40:15.768Z,69.86
2023-02-13T08:41:20.464Z,78.67
2023-02-13T08:42:23.229Z,72.97
2023-02-13T08:43:25.673Z,69.22
2023-02-13T08:44:28.013Z,77.92
2023-02-13T08:45:31.400Z,73.47
2023-02-13T08:46:34.026Z,76.29
2023-02-13T08:47:39.288Z,70.23
2023-02-13T08:48:41.487Z,69.30
2023-02-13T08:49:43.727Z,69.51
2023-02-13T08:50:45.941Z,72.06
2023-02-13T08:51:48.303Z,74.04
2023-02-13T08:52:51.477Z,73.14
2023-02-13T08:53:54.846Z,73.94
2023-02-13T08:54:57.210Z,71.18
2023-02-13T08:55:59.896Z,71.94
2023-02-13T08:57:02.391Z,72.03
2023-02-13T08:58:05.181Z,75.03
2023-02-13T08:59:07.343Z,77.62
2023-02-13T09:00:10.987Z,76.76
2023-02-13T09:01:13.272Z,75.81
2023-02-13T09:02:15.522Z,77.62
2023-02-13T09:03:17.874Z,77.64
2023-02-13T09:04:21.765Z,71.36
2023-02-13T09:05:24.728Z,76.77
2023-02-13T09:06:28.034Z,78.33
2023-02-13T09:07:30.987Z,73.81
2023-02-13T09:08:35.497Z,71.26
2023-02-13T09:09:38.028Z,74.71
2023-02-13T09:10:43.232Z,76.35
2023-02-13T09:11:45.204Z,76.35
2023-02-13T09:12:54.884Z,76.74
2023-02-13T09:13:57.149Z,80.41
2023-02-13T09:14:59.199Z,75.67
2023-02-13T09:16:05.205Z,76.58
2023-02-13T09:17:07.868Z,75.04
2023-02-13T09:18:11.658Z,74.89
2023-02-13T09:19:13.916Z,74.68
2023-02-13T09:20:17.082Z,74.33
2023-02-13T09:21:25.052Z,79.09
2023-02-13T09:22:28.998Z,76.45
2023-02-13T09:23:34.864Z,74.16
2023-02-13T09:24:38.510Z,77.73
2023-02-13T09:25:41.269Z,74.54
2023-02-13T09:26:43.632Z,77.04
2023-02-13T09:27:45.845Z,77.51
2023-02-13T09:28:48.169Z,75.40
2023-02-13T09:29:50.237Z,77.47
2023-02-13T09:30:52.811Z,81.40
2023-02-13T09:31:55.223Z,75.93
2023-02-13T09:32:58.756Z,77.72
2023-02-13T09:34:01.057Z,76.04
2023-02-13T09:35:05.983Z,76.39
2023-02-13T09:36:14.426Z,76.06
2023-02-13T09:37:17.307Z,76.53
2023-02-13T09:38:19.907Z,76.66
2023-02-13T09:39:22.337Z,77.13
2023-02-13T09:40:31.050Z,77.57
2023-02-13T09:41:40.084Z,78.14
2023-02-13T09:42:44.231Z,78.20
2023-02-13T09:44:11.588Z,78.40
2023-02-13T09:45:16.737Z,78.78
2023-02-13T09:46:38.897Z,78.23
2023-02-13T09:47:43.654Z,78.49
2023-02-13T09:48:49.463Z,79.19
2023-02-13T09:50:00.654Z,78.88
2023-02-13T09:51:05.656Z,78.40
2023-02-13T09:52:10.045Z,78.25
2023-02-13T09:53:15.988Z,78.53
2023-02-13T09:54:19.267Z,78.84
2023-02-13T09:55:38.154Z,78.57
2023-02-13T09:57:01.152Z,78.37
2023-02-13T09:58:27.633Z,78.70
2023-02-13T09:59:51.344Z,78.90
2023-02-13T10:00:57.740Z,78.94
2023-02-13T10:02:20.750Z,79.49
2023-02-13T10:03:36.328Z,79.44
2023-02-13T10:05:01.041Z,80.04
2023-02-13T10:06:17.126Z,80.31
2023-02-13T10:09:02.017Z,79.98
2023-02-13T10:10:14.359Z,79.53
2023-02-13T10:11:29.295Z,78.95
2023-02-13T10:13:12.024Z,79.61
2023-02-13T10:14:20.942Z,80.00
2023-02-13T10:15:29.299Z,80.56
2023-02-13T10:16:51.128Z,80.60
2023-02-13T10:17:56.957Z,80.73
2023-02-13T10:19:35.410Z,80.57
2023-02-13T10:20:48.272Z,80.80
2023-02-13T10:21:54.224Z,81.47
2023-02-13T10:23:00.182Z,81.79
2023-02-13T10:24:12.722Z,81.76
2023-02-13T10:25:27.108Z,81.53
2023-02-13T10:26:42.300Z,81.44
2023-02-13T10:27:48.883Z,81.12
2023-02-13T10:29:15.717Z,81.36
2023-02-13T10:30:27.903Z,81.88
2023-02-13T10:31:30.407Z,81.57
2023-02-13T10:32:55.065Z,81.18
2023-02-13T10:34:01.134Z,81.96
2023-02-13T10:35:06.257Z,84.21
2023-02-13T10:36:34.294Z,81.33
2023-02-13T10:37:39.526Z,81.31
2023-02-13T10:39:00.574Z,81.12
2023-02-13T10:40:06.969Z,81.22
2023-02-13T10:41:22.505Z,81.40
2023-02-13T10:42:43.786Z,81.54
2023-02-13T10:44:10.380Z,81.31
2023-02-13T10:45:22.210Z,81.54
2023-02-13T10:46:41.473Z,81.74
2023-02-13T10:48:00.383Z,81.83
2023-02-13T10:49:11.957Z,81.85
2023-02-13T10:50:33.470Z,81.56
2023-02-13T10:51:40.460Z,82.19
2023-02-13T10:52:46.288Z,82.88
2023-02-13T10:53:57.851Z,83.00
2023-02-13T10:55:12.205Z,83.07
2023-02-13T10:56:18.230Z,82.61
2023-02-13T10:57:27.184Z,82.47
2023-02-13T10:58:50.517Z,82.50
2023-02-13T11:00:11.581Z,82.99
2023-02-13T11:01:40.433Z,83.14
2023-02-13T11:02:42.772Z,83.26
2023-02-13T11:03:47.225Z,83.75
2023-02-13T11:04:52.612Z,83.67
2023-02-13T11:05:57.893Z,83.59
2023-02-13T11:07:03.008Z,83.48
2023-02-13T11:08:26.695Z,83.51
2023-02-13T11:09:32.670Z,83.47
2023-02-13T11:10:35.858Z,83.15
2023-02-13T11:11:40.796Z,83.18
2023-02-13T11:12:44.405Z,82.74
2023-02-13T11:13:46.566Z,82.78
2023-02-13T11:15:01.251Z,82.62
2023-02-13T11:16:07.511Z,82.62
2023-02-13T11:17:16.587Z,82.58
2023-02-13T11:18:21.900Z,82.36
2023-02-13T11:19:30.632Z,82.39
2023-02-13T11:20:38.885Z,82.69
2023-02-13T11:21:42.410Z,82.70
2023-02-13T11:22:45.417Z,82.68
2023-02-13T11:23:55.057Z,82.80
2023-02-13T11:25:01.057Z,82.70
2023-02-13T11:26:08.321Z,82.38
2023-02-13T11:27:13.519Z,82.97
2023-02-13T11:28:20.354Z,83.84
2023-02-13T11:29:26.275Z,84.44
2023-02-13T11:30:34.082Z,84.10
2023-02-13T11:31:37.777Z,83.95
2023-02-13T11:32:40.197Z,84.12
2023-02-13T11:33:42.470Z,84.12
2023-02-13T11:34:46.751Z,84.29
2023-02-13T11:35:50.212Z,84.42
2023-02-13T11:36:54.883Z,85.42
2023-02-13T11:38:18.829Z,86.04
2023-02-13T11:39:22.712Z,86.82
2023-02-13T11:40:32.209Z,87.19
2023-02-13T11:41:40.835Z,87.27
2023-02-13T11:42:46.433Z,87.51
2023-02-13T11:43:53.191Z,87.91
2023-02-13T11:44:59.164Z,87.98
2023-02-13T11:46:08.148Z,88.05
2023-02-13T11:47:10.868Z,87.76
2023-02-13T11:48:23.655Z,87.58
2023-02-13T11:49:32.848Z,87.63
2023-02-13T11:50:37.271Z,87.82
2023-02-13T11:51:46.049Z,87.58
2023-02-13T11:53:04.963Z,87.63
2023-02-13T11:54:24.251Z,87.81
2023-02-13T11:55:38.083Z,87.95
2023-02-13T11:57:09.080Z,88.04
2023-02-13T11:58:04.696Z,87.71
2023-02-13T11:59:10.575Z,87.92
2023-02-13T12:00:30.573Z,87.84
2023-02-13T12:01:33.870Z,87.75
2023-02-13T12:02:49.295Z,87.62
2023-02-13T12:04:18.355Z,87.71
2023-02-13T12:05:25.309Z,87.67
2023-02-13T12:06:29.010Z,87.72
2023-02-13T12:07:33.751Z,87.85
2023-02-13T12:08:38.475Z,87.42
2023-02-13T12:09:42.208Z,87.25
2023-02-13T12:10:45.197Z,86.99
2023-02-13T12:11:51.753Z,86.87
2023-02-13T12:13:00.892Z,86.62
2023-02-13T12:14:03.198Z,86.26
2023-02-13T12:15:09.204Z,85.69
2023-02-13T12:16:30.710Z,86.01
2023-02-13T12:17:36.163Z,86.31
2023-02-13T12:18:41.939Z,86.30
2023-02-13T12:19:51.581Z,86.61
2023-02-13T12:21:06.928Z,86.66
2023-02-13T12:22:27.204Z,86.77
2023-02-13T12:23:48.329Z,86.54
2023-02-13T12:25:17.225Z,85.96
2023-02-13T12:26:23.961Z,85.73
2023-02-13T12:27:52.385Z,85.89
2023-02-13T12:29:27.124Z,85.80
2023-02-13T12:31:03.258Z,85.82
2023-02-13T12:32:30.160Z,86.33
2023-02-13T12:33:45.576Z,86.01
2023-02-13T12:34:57.305Z,86.18
2023-02-13T12:36:22.416Z,86.21
2023-02-13T12:37:34.137Z,86.25
2023-02-13T12:38:55.271Z,86.63
2023-02-13T12:40:01.052Z,86.63
2023-02-13T12:41:25.415Z,86.65
2023-02-13T12:42:50.039Z,86.66
2023-02-13T12:44:01.758Z,86.64
2023-02-13T12:45:23.104Z,87.67
2023-02-13T12:46:48.334Z,87.33
2023-02-13T12:49:28.179Z,89.36
2023-02-13T12:50:34.236Z,87.12
2023-02-13T12:51:40.121Z,85.75
2023-02-13T12:52:47.102Z,84.79
2023-02-13T12:54:28.537Z,89.23
2023-02-13T12:55:46.712Z,87.96
2023-02-13T12:57:04.946Z,90.49
2023-02-13T12:58:27.833Z,87.01
2023-02-13T12:59:39.690Z,84.97
2023-02-13T13:00:52.582Z,83.06
2023-02-13T13:02:33.823Z,83.02
2023-02-13T13:03:54.740Z,83.74
2023-02-13T13:05:00.585Z,84.26
2023-02-13T13:06:24.057Z,84.82
2023-02-13T13:07:32.737Z,87.42
2023-02-13T13:08:51.539Z,88.17
2023-02-13T13:09:57.610Z,81.22
2023-02-13T13:11:09.829Z,81.11
2023-02-13T13:12:25.143Z,81.51
2023-02-13T13:13:39.690Z,82.46
2023-02-13T13:14:57.282Z,83.27
2023-02-13T13:16:06.281Z,84.16
2023-02-13T13:17:29.556Z,84.45
2023-02-13T13:19:01.127Z,84.30
2023-02-13T13:20:09.396Z,84.76
2023-02-13T13:21:35.310Z,85.50
2023-02-13T13:22:53.200Z,85.92
2023-02-13T13:24:07.601Z,85.91
2023-02-13T13:25:25.754Z,85.95
2023-02-13T13:26:42.049Z,86.12
2023-02-13T13:27:47.682Z,86.11
2023-02-13T13:28:54.380Z,86.52
2023-02-13T13:30:00.306Z,86.91
2023-02-13T13:31:03.792Z,86.94
2023-02-13T13:32:10.193Z,86.91
2023-02-13T13:33:18.859Z,86.82
2023-02-13T13:34:24.721Z,87.07
2023-02-13T13:35:28.656Z,87.29
2023-02-13T13:36:52.045Z,87.52
2023-02-13T13:39:34.729Z,87.72
2023-02-13T13:40:46.424Z,87.64
2023-02-13T13:42:09.765Z,87.71
2023-02-13T13:43:15.594Z,87.98
2023-02-13T13:44:39.193Z,88.43
2023-02-13T13:46:08.735Z,88.77
2023-02-13T13:47:26.853Z,88.77
2023-02-13T13:49:01.520Z,88.80
2023-02-13T13:50:07.306Z,89.06
2023-02-13T13:51:13.309Z,89.28
2023-02-13T13:52:26.176Z,89.49
2023-02-13T13:53:29.507Z,89.65
2023-02-13T13:54:35.971Z,89.66
2023-02-13T13:55:55.138Z,89.71
2023-02-13T13:57:05.102Z,89.88
2023-02-13T13:58:12.369Z,90.15
2023-02-13T13:59:21.564Z,90.41
2023-02-13T14:01:43.696Z,90.49
2023-02-13T14:02:50.154Z,90.35
2023-02-13T14:03:55.401Z,90.34
2023-02-13T14:05:21.160Z,90.65
2023-02-13T14:06:26.894Z,90.68
2023-02-13T14:07:38.379Z,90.71
2023-02-13T14:08:44.451Z,90.67
2023-02-13T14:09:47.944Z,90.66
2023-02-13T14:11:04.924Z,90.72
2023-02-13T14:12:31.276Z,90.94
2023-02-13T14:13:40.812Z,91.15
2023-02-13T14:14:45.209Z,91.39
2023-02-13T14:15:51.084Z,91.39
2023-02-13T14:16:56.928Z,91.38
2023-02-13T14:18:03.450Z,91.48
2023-02-13T14:19:08.132Z,91.36
2023-02-13T14:20:29.881Z,91.28
2023-02-13T14:21:34.621Z,91.24
2023-02-13T14:22:38.722Z,91.15
2023-02-13T14:23:50.196Z,91.55
2023-02-13T14:24:55.409Z,91.55
2023-02-13T14:26:16.884Z,91.49
2023-02-13T14:27:37.305Z,91.68
2023-02-13T14:28:45.305Z,91.80
2023-02-13T14:29:49.991Z,91.73
2023-02-13T14:30:56.994Z,91.65
2023-02-13T14:32:10.208Z,91.72
2023-02-13T14:33:29.064Z,91.76
2023-02-13T14:34:35.032Z,91.60
2023-02-13T14:35:38.145Z,91.54
2023-02-13T14:36:44.418Z,91.72
2023-02-13T14:37:58.978Z,91.83
2023-02-13T14:39:05.214Z,91.78
2023-02-13T14:40:17.654Z,91.68
2023-02-13T14:41:43.351Z,91.94
2023-02-13T14:43:01.626Z,92.07
2023-02-13T14:44:05.689Z,92.15
2023-02-13T14:45:17.981Z,91.95
2023-02-13T14:47:44.980Z,91.92
2023-02-13T14:49:17.586Z,92.02